Home > Products > Valid Products > TAF

000
FTUS41 KGYX 251100
TAFAUG
TAF
KAUG 251120Z 2512/2612 31005KT P6SM SKC
     FM251600 24008KT P6SM SCT060=



000
FTUS41 KGYX 251100
TAFLEB
TAF
KLEB 251120Z 2512/2612 00000KT 2SM BR VV001
     FM251230 29006KT P6SM SCT060=



000
FTUS41 KGYX 251100
TAFPSM
TAF
KPSM 251120Z 2512/2612 28005KT P6SM SCT250
     FM251800 21008KT P6SM SCT060=



000
FTUS41 KGYX 251100
TAFPWM
TAF
KPWM 251120Z 2512/2612 27005KT P6SM SCT250
     FM251600 21010KT P6SM SCT060=



000
FTUS41 KGYX 251100
TAFCON
TAF
KCON 251120Z 2512/2612 29005KT P6SM SKC=



000
FTUS41 KGYX 250900 RRA
TAFLEB
TAF
KLEB 250923Z 2509/2606 00000KT 1/2SM FG VV001
     FM251200 30003KT P6SM SKC
     FM251600 27006KT P6SM SCT060=



000
FTUS41 KGYX 250900 RRA
TAFAUG
TAF
KAUG 250923Z 2509/2606 30003KT P6SM SKC
     FM251700 25008KT P6SM SCT060=



000
FTUS41 KGYX 250900 RRA
TAFPSM
TAF
KPSM 250923Z 2509/2606 29005KT P6SM SCT250
     FM251800 21008KT P6SM SCT060=



000
FTUS41 KGYX 250900 RRA
TAFCON
TAF
KCON 250923Z 2509/2606 30005KT P6SM SKC
     FM251800 26007KT P6SM SCT060=



000
FTUS41 KGYX 250900 RRA
TAFPWM
TAF
KPWM 250923Z 2509/2606 VRB03KT P6SM SCT250
     FM251400 30007KT P6SM SKC
     FM251600 21010KT P6SM SCT060=



000
FTUS41 KGYX 250800 AAC
TAFLEB
TAF AMD
KLEB 250800Z 2508/2606 00000KT P6SM SKC
      TEMPO 2508/2510 2SM BR BKN001
     FM251200 30003KT P6SM SKC
     FM251600 27006KT P6SM SCT060=



000
FTUS41 KGYX 250700 AAB
TAFLEB
TAF AMD
KLEB 250700Z 2507/2606 00000KT P6SM SKC
      TEMPO 2508/2510 3SM BR SCT001
     FM251200 30003KT P6SM SKC
     FM251600 27006KT P6SM SCT060=



000
FTUS41 KGYX 250600 AAA
TAFLEB
TAF AMD
KLEB 250624Z 2506/2606 00000KT 2SM BR SCT001
      TEMPO 2508/2510 1/2SM FG BKN001
     FM251200 30003KT P6SM SKC
     FM251600 27006KT P6SM SCT060=



000
FTUS41 KGYX 250500
TAFCON
TAF
KCON 250520Z 2506/2606 30005KT P6SM SKC
     FM251800 26007KT P6SM SCT060=



000
FTUS41 KGYX 250500
TAFLEB
TAF
KLEB 250520Z 2506/2606 00000KT P6SM SKC
     FM250800 00000KT 2SM BR SCT001
     FM251200 30003KT P6SM SKC
     FM251600 27006KT P6SM SCT060=



000
FTUS41 KGYX 250500
TAFPSM
TAF
KPSM 250520Z 2506/2606 29005KT P6SM SCT250
     FM251800 21008KT P6SM SCT060=



000
FTUS41 KGYX 250500
TAFAUG
TAF
KAUG 250520Z 2506/2606 30003KT P6SM SKC
     FM251700 25008KT P6SM SCT060=



000
FTUS41 KGYX 250500
TAFPWM
TAF
KPWM 250520Z 2506/2606 VRB03KT P6SM SCT250
     FM251400 30007KT P6SM SKC
     FM251600 21010KT P6SM SCT060=



000
FTUS41 KGYX 242300
TAFCON
TAF
KCON 242326Z 2500/2524 VRB03KT P6SM SKC
     FM251400 30005KT P6SM SKC
     FM251800 26007KT P6SM SCT060=



000
FTUS41 KGYX 242300
TAFPSM
TAF
KPSM 242326Z 2500/2524 VRB03KT P6SM SCT060
     FM251400 29007KT P6SM SKC
     FM251800 21008KT P6SM SCT060=



000
FTUS41 KGYX 242300
TAFLEB
TAF
KLEB 242326Z 2500/2524 34008KT P6SM SKC
     FM250100 VRB03KT P6SM SKC
     FM250800 00000KT 1SM BR BKN001
     FM251300 30003KT P6SM SKC
     FM251600 27006KT P6SM SCT060=



000
FTUS41 KGYX 242300
TAFPWM
TAF
KPWM 242326Z 2500/2524 VRB03KT P6SM SCT070
     FM251400 30007KT P6SM SKC
     FM251600 22010KT P6SM SCT060=



000
FTUS41 KGYX 242300
TAFAUG
TAF
KAUG 242326Z 2500/2524 VRB03KT P6SM SKC
     FM251400 30007KT P6SM SKC
     FM251800 25008KT P6SM SCT060=



000
FTUS41 KGYX 241700
TAFCON
TAF
KCON 241726Z 2418/2518 01007KT P6SM BKN040
     FM242300 VRB03KT P6SM SKC
     FM251400 30007KT P6SM SCT040=



000
FTUS41 KGYX 241700
TAFAUG
TAF
KAUG 241726Z 2418/2518 36010KT P6SM BKN040
     FM242300 VRB03KT P6SM SKC
     FM251400 30007KT P6SM SCT040=



000
FTUS41 KGYX 241700
TAFLEB
TAF
KLEB 241726Z 2418/2518 33008KT P6SM BKN040
     FM242300 VRB03KT P6SM SKC
     FM250600 00000KT 3SM BR SCT001
     FM250800 00000KT 1SM BR BKN001
     FM251200 00000KT 3SM BR SCT001
     FM251300 30003KT P6SM SCT040=



000
FTUS41 KGYX 241700
TAFPWM
TAF
KPWM 241726Z 2418/2518 09008KT P6SM BKN040
     FM242300 VRB03KT P6SM SKC
     FM251400 30007KT P6SM SCT040=



000
FTUS41 KGYX 241700
TAFPSM
TAF
KPSM 241726Z 2418/2518 09008KT P6SM BKN040
     FM242000 09007KT P6SM BKN040
     FM242300 VRB03KT P6SM SKC
     FM251400 30007KT P6SM SCT040=



000
FTUS41 KGYX 241400 AAD
TAFLEB
TAF AMD
KLEB 241447Z 2415/2512 31005KT P6SM FEW025 SCT035 BKN120
     FM241600 33007KT P6SM SCT040=



000
FTUS41 KGYX 241400 AAD
TAFCON
TAF AMD
KCON 241446Z 2415/2512 36005KT P6SM SCT025 BKN040
     FM241600 33010KT P6SM SCT040 BKN150=



000
FTUS41 KGYX 241400 AAC
TAFAUG
TAF AMD
KAUG 241444Z 2415/2512 06008KT P6SM SCT020 OVC080
     FM241600 01010KT P6SM SCT025 BKN150
     FM242300 32005KT P6SM SKC=



000
FTUS41 KGYX 241400 AAC
TAFPWM
TAF AMD
KPWM 241423Z 2414/2512 05008KT P6SM SCT018 OVC070
     FM241530 01010KT P6SM SCT040 BKN150
     FM242100 24006KT P6SM BKN200=



000
FTUS41 KGYX 241400 AAC
TAFCON
TAF AMD
KCON 241401Z 2414/2512 33007KT P6SM -SHRA BKN030 OVC040
     FM241430 33010KT P6SM BKN030 BKN100
     FM241600 33010KT P6SM SCT040 BKN150=



000
FTUS41 KGYX 241400 AAC
TAFLEB
TAF AMD
KLEB 241401Z 2414/2512 32007KT P6SM BKN018
     FM241500 33007KT P6SM SCT025 BKN040
     FM241600 35007KT P6SM SCT040 BKN150=



000
FTUS41 KGYX 241400 AAB
TAFAUG
TAF AMD
KAUG 241400Z 2414/2512 04010KT P6SM BKN017 OVC100
     FM241500 01010KT P6SM SCT025 BKN150
     FM242300 32005KT P6SM SKC=



000
FTUS41 KGYX 241300 AAB
TAFPWM
TAF AMD
KPWM 241357Z 2414/2512 02010KT P6SM OVC020
     FM241500 36010KT P6SM SCT020 BKN150
     FM242100 24006KT P6SM BKN200=



000
FTUS41 KGYX 241300 AAB
TAFLEB
TAF AMD
KLEB 241324Z 2413/2512 32007KT P6SM SCT013 BKN020
     FM241430 33007KT P6SM SCT025 BKN040
     FM241600 35007KT P6SM SCT040 BKN150=



000
FTUS41 KGYX 241300 AAB
TAFCON
TAF AMD
KCON 241303Z 2413/2512 33007KT P6SM BKN020 OVC030
     FM241400 33010KT P6SM SCT030 BKN070 OVC150
     FM241600 33010KT P6SM SCT150=



000
FTUS41 KGYX 241200 AAA
TAFLEB
TAF AMD
KLEB 241255Z 2413/2512 VRB03KT P6SM BKN013 OVC018
     FM241400 35005KT P6SM SCT013 BKN040
     FM241600 35007KT P6SM SCT040 BKN150=



000
FTUS41 KGYX 241200 AAA
TAFAUG
TAF AMD
KAUG 241223Z 2412/2512 35010KT P6SM SCT012 BKN025 OVC070
     FM241330 35010KT P6SM SCT025 BKN120
     FM242300 32005KT P6SM SKC=



000
FTUS41 KGYX 241200 AAA
TAFPSM
TAF AMD
KPSM 241206Z 2412/2512 36007KT P6SM SCT012 OVC035
     FM241400 36010KT P6SM SCT035 BKN150
     FM241600 36010KT P6SM SCT150
     FM242100 15006KT P6SM BKN200=



000
FTUS41 KGYX 241100 AAA
TAFCON
TAF AMD
KCON 241159Z 2412/2512 33010KT P6SM OVC025
     FM241300 33010KT P6SM SCT025 BKN070 OVC150
     FM241500 33010KT P6SM SCT150=



000
FTUS41 KGYX 241100 AAA
TAFPWM
TAF AMD
KPWM 241157Z 2412/2512 35010KT P6SM -RA SCT009 OVC060
     FM241300 35010KT P6SM BKN150
     FM242100 24006KT P6SM BKN200=



000
FTUS41 KGYX 241100
TAFPSM
TAF
KPSM 241120Z 2412/2512 30004KT P6SM BKN025 OVC120
     FM241300 36010KT P6SM SCT120 OVC200
     FM242100 15006KT P6SM BKN200=



000
FTUS41 KGYX 241100
TAFLEB
TAF
KLEB 241120Z 2412/2512 00000KT P6SM OVC120
     FM241400 35006KT P6SM SCT040 SCT120=



000
FTUS41 KGYX 241100
TAFPWM
TAF
KPWM 241120Z 2412/2512 30004KT 5SM -SHRA BKN035 OVC150
     FM241300 35010KT P6SM BKN150
     FM242100 24006KT P6SM BKN200=



000
FTUS41 KGYX 241100
TAFAUG
TAF
KAUG 241120Z 2412/2512 33006KT P6SM SCT015 OVC100
     FM241300 35010KT P6SM SCT045 SCT120
     FM242300 32005KT P6SM SKC=



000
FTUS41 KGYX 241100
TAFCON
TAF
KCON 241120Z 2412/2512 31004KT P6SM SCT015 BKN050 OVC120
     FM241300 33010KT P6SM SCT120=



000
FTUS41 KGYX 241000 AAA
TAFPSM
TAF AMD
KPSM 241022Z 2410/2506 30004KT P6SM BKN025 OVC120
      TEMPO 2410/2411 3SM -SHRA BKN007 BKN015
     FM241300 36010KT P6SM SCT120 OVC200
     FM242100 15006KT P6SM BKN200=



000
FTUS41 KGYX 241000 AAA
TAFPWM
TAF AMD
KPWM 241021Z 2410/2506 30004KT P6SM OVC150
      TEMPO 2410/2411 2SM -SHRA SCT007 BKN030
     FM241300 35010KT P6SM BKN150
     FM242100 24006KT P6SM BKN200=



000
FTUS41 KGYX 240900 RRA
TAFPWM
TAF
KPWM 240914Z 2409/2506 30004KT P6SM OVC150
      TEMPO 2409/2410 3SM -SHRA SCT007 BKN015
     FM241300 35010KT P6SM BKN150
     FM242100 24006KT P6SM BKN200=



000
FTUS41 KGYX 240900 RRA
TAFCON
TAF
KCON 240914Z 2409/2506 31004KT P6SM SCT015 BKN050 OVC120
     FM241300 33010KT P6SM SCT120=



000
FTUS41 KGYX 240900 RRA
TAFPSM
TAF
KPSM 240914Z 2409/2506 30004KT 6SM -SHRA SCT007 BKN015 OVC120
     FM241000 32005KT P6SM OVC150
     FM241300 36010KT P6SM SCT120 OVC200
     FM242100 15006KT P6SM BKN200=



000
FTUS41 KGYX 240900 RRA
TAFAUG
TAF
KAUG 240914Z 2409/2506 33006KT P6SM SCT015 OVC100
     FM241300 35010KT P6SM SCT045 SCT120
     FM242300 32005KT P6SM SKC=



000
FTUS41 KGYX 240900 RRA
TAFLEB
TAF
KLEB 240914Z 2409/2506 VRB03KT P6SM SCT060 OVC120
     FM241200 35006KT P6SM SCT040 SCT120=



000
FTUS41 KGYX 240600 AAA
TAFLEB
TAF AMD
KLEB 240616Z 2406/2506 VRB03KT P6SM SCT007 BKN025 OVC060
     FM240800 VRB03KT P6SM BKN120 OVC200
     FM241200 35006KT P6SM SCT040 SCT120=



000
FTUS41 KGYX 240600 AAA
TAFCON
TAF AMD
KCON 240616Z 2406/2506 31004KT P6SM SCT015 BKN050 OVC120
     FM240700 VRB03KT P6SM BKN120 OVC200
     FM241300 33010KT P6SM SCT120=



000
FTUS41 KGYX 240500
TAFPSM
TAF
KPSM 240520Z 2406/2506 30004KT 6SM -SHRA OVC120
     FM240700 32005KT P6SM OVC150
     FM241300 36010KT P6SM SCT120 OVC200
     FM242100 15006KT P6SM BKN200=



000
FTUS41 KGYX 240500
TAFAUG
TAF
KAUG 240520Z 2406/2506 31004KT 6SM -SHRA OVC120
     FM240800 34005KT P6SM BKN120 OVC200
     FM241300 35010KT P6SM SCT045 SCT120
     FM242300 32005KT P6SM SKC=



000
FTUS41 KGYX 240500
TAFLEB
TAF
KLEB 240520Z 2406/2506 35003KT P6SM BKN007 OVC060
     FM240800 VRB03KT P6SM BKN120 OVC200
     FM241200 35006KT P6SM SCT040 SCT120=



000
FTUS41 KGYX 240500
TAFCON
TAF
KCON 240520Z 2406/2506 31004KT 6SM -SHRA BKN007 OVC120
     FM240700 VRB03KT P6SM BKN120 OVC200
     FM241300 33010KT P6SM SCT120=



000
FTUS41 KGYX 240500
TAFPWM
TAF
KPWM 240520Z 2406/2506 30004KT 6SM -SHRA OVC150
     FM240700 31005KT P6SM BKN150 OVC200
     FM241300 35010KT P6SM BKN150
     FM242100 24006KT P6SM BKN200=



000
FTUS41 KGYX 240400 AAC
TAFLEB
TAF AMD
KLEB 240437Z 2405/2424 35005KT 3SM BR SCT025 BKN040 OVC070
     FM240900 VRB03KT 3SM BR SCT002 BKN120
     FM241200 33006KT P6SM SCT040 SCT120=



000
FTUS41 KGYX 240400 AAB
TAFCON
TAF AMD
KCON 240436Z 2405/2424 31004KT 6SM -SHRA BR BKN080 OVC120
     FM240600 VRB03KT 3SM BR SCT020 SCT040 BKN100
     FM241200 33006KT P6SM SCT045 SCT120=



000
FTUS41 KGYX 240200 AAA
TAFCON
TAF AMD
KCON 240241Z 2403/2424 24003KT 3SM -SHRA BR BKN007 BKN080
      TEMPO 2403/2406 6SM BR SCT007 BKN050
     FM240600 VRB03KT 3SM BR SCT020 SCT040 BKN100
     FM241200 33006KT P6SM SCT045 SCT120=



000
FTUS41 KGYX 240200 AAB
TAFLEB
TAF AMD
KLEB 240203Z 2402/2424 VRB03KT 4SM BR BKN004 OVC009
     FM240500 VRB03KT 1SM BR BKN002 OVC007
     FM241200 33006KT P6SM SCT040 SCT120=



000
FTUS41 KGYX 240100 AAA
TAFPSM
TAF AMD
KPSM 240159Z 2402/2424 29008KT 5SM -TSRA BR SCT025 BKN050CB BKN080
     FM240300 29005KT P6SM SCT040 BKN100
     FM240800 32005KT 4SM BR SCT020 BKN100
     FM241200 36010KT P6SM SCT045 SCT120
     FM242100 15006KT P6SM FEW050=



000
FTUS41 KGYX 240100 AAB
TAFAUG
TAF AMD
KAUG 240143Z 2402/2424 21005KT 4SM -SHRA BR SCT050 OVC100
     FM240400 29005KT 5SM BR SCT040 BKN100
     FM240700 35004KT 2SM BR SCT010 SCT040 BKN100
     FM241200 36007KT P6SM SCT045 SCT120=



000
FTUS41 KGYX 240100 AAA
TAFPWM
TAF AMD
KPWM 240141Z 2402/2424 35005KT 5SM SHRA BR BKN060
     FM240400 30005KT P6SM SCT040 BKN100
     FM240800 34005KT 3SM BR SCT012 SCT040 BKN100
     FM241200 35009KT P6SM SCT040 SCT120
     FM242100 18006KT P6SM FEW050=



000
FTUS41 KGYX 240000 AAA
TAFLEB
TAF AMD
KLEB 240059Z 2401/2424 VRB03KT 4SM -SHRA SCT040 BKN100
     FM240200 30005KT P6SM SCT040 BKN100
     FM240500 VRB03KT 2SM BR BKN002 BKN100
     FM241200 34006KT P6SM SCT040 SCT120=



000
FTUS41 KGYX 240000 AAA
TAFAUG
TAF AMD
KAUG 240056Z 2401/2424 21010KT P6SM -SHRA SCT050 OVC100
     FM240400 29005KT 5SM BR SCT040 BKN100
     FM240700 35004KT 2SM BR SCT010 SCT040 BKN100
     FM241200 36007KT P6SM SCT045 SCT120=



000
FTUS41 KGYX 232300
TAFAUG
TAF
KAUG 232320Z 2400/2424 21010KT 5SM -TSRA BKN050CB
      TEMPO 2400/2402 1SM +TSRA BKN025CB OVC040
     FM240400 29005KT P6SM SCT040 BKN100
     FM240700 35004KT 3SM BR SCT010 SCT040 BKN100
     FM241200 36007KT P6SM SCT045 SCT120=



000
FTUS41 KGYX 232300
TAFLEB
TAF
KLEB 232320Z 2400/2424 VRB03KT 4SM -TSRA OVC040CB
      TEMPO 2400/2401 1SM +TSRA BKN025CB OVC040
     FM240100 30005KT P6SM SCT040 BKN100
     FM240700 VRB03KT 2SM BR BKN002 BKN100
     FM241200 34006KT P6SM SCT040 SCT120=



000
FTUS41 KGYX 232300
TAFCON
TAF
KCON 232320Z 2400/2424 20007KT 5SM -TSRA SCT025 OVC040CB
      TEMPO 2400/2401 32015G25KT 1SM +TSRA BKN025CB OVC040
     FM240200 28005KT P6SM SCT045 BKN100
     FM240600 VRB03KT 3SM BR SCT020 SCT040 BKN100
     FM241200 33006KT P6SM SCT045 SCT120=



000
FTUS41 KGYX 232300
TAFPWM
TAF
KPWM 232320Z 2400/2424 20010KT 5SM -TSRA BKN050CB
      TEMPO 2401/2404 31015G25KT 1SM +TSRA BKN025CB OVC040
     FM240400 30005KT P6SM SCT040 BKN100
     FM240800 34005KT 3SM BR SCT012 SCT040 BKN100
     FM241200 35009KT P6SM SCT040 SCT120
     FM242100 18006KT P6SM FEW050=



000
FTUS41 KGYX 232300
TAFPSM
TAF
KPSM 232320Z 2400/2424 21007KT 5SM -TSRA BKN050CB BKN100
      TEMPO 2400/2402 32015G25KT 1SM +TSRA BKN025CB OVC040
     FM240400 29005KT P6SM SCT040 BKN100
     FM240800 32005KT 4SM BR SCT020 BKN100
     FM241200 36010KT P6SM SCT045 SCT120
     FM242100 15006KT P6SM FEW050=



000
FTUS41 KGYX 232100 AAA
TAFPWM
TAF AMD
KPWM 232159Z 2322/2418 19009KT P6SM FEW045 SCT100
     FM240000 20010KT 5SM -TSRA BKN050CB
      TEMPO 2400/2402 31015G25KT 1SM +TSRA BKN025CB OVC040
     FM240400 30005KT P6SM SCT040 BKN100
     FM240800 34005KT 3SM BR SCT012 SCT040 BKN100
     FM241200 35009KT P6SM SCT120=



000
FTUS41 KGYX 232100 AAA
TAFCON
TAF AMD
KCON 232132Z 2322/2418 22008KT P6SM SCT045 SCT100
     FM232300 25011KT 5SM -TSRA SCT025 OVC040CB
      TEMPO 2323/2401 32015G25KT 1SM +TSRA BKN025CB OVC040
     FM240200 28005KT P6SM SCT045 BKN100
     FM240600 VRB03KT 3SM BR SCT020 SCT040 BKN100
     FM241200 33008KT P6SM SCT045 SCT120=



000
FTUS41 KGYX 232000 AAA
TAFAUG
TAF AMD
KAUG 232043Z 2321/2418 19008G16KT P6SM SCT045 SCT100
     FM232200 21010KT 5SM -TSRA BKN050CB
      TEMPO 2322/2324 1SM +TSRA BKN025CB OVC040
     FM240100 29005KT P6SM SCT040 BKN100
     FM240700 35004KT 3SM BR SCT010 SCT040 BKN100
     FM241200 35008KT P6SM SCT045 SCT120=



000
FTUS41 KGYX 231800 AAA
TAFLEB
TAF AMD
KLEB 231815Z 2318/2418 23010G18KT P6SM SCT040 BKN050 BKN100
     FM232100 22010G18KT 4SM -TSRA OVC040CB
      TEMPO 2321/2324 1SM +TSRA BKN025CB OVC040
     FM240100 30005KT P6SM SCT040 BKN100
     FM240600 VRB03KT 2SM BR BKN002 BKN100
     FM241200 34006KT P6SM SCT040 SCT120=



000
FTUS41 KGYX 231700
TAFLEB
TAF
KLEB 231739Z 2318/2418 25010G18KT P6SM SCT040 BKN050 BKN100
     FM232100 24010G18KT 4SM -TSRA OVC040CB
      TEMPO 2321/2324 1SM +TSRA BKN025CB OVC040
     FM240100 30005KT P6SM SCT040 BKN100
     FM240600 VRB03KT 2SM BR BKN002 BKN100
     FM241200 34006KT P6SM SCT040 SCT120=



000
FTUS41 KGYX 231700
TAFPSM
TAF
KPSM 231739Z 2318/2418 21009G18KT P6SM SCT040 SCT100
     FM240000 22009KT 5SM -TSRA BKN050CB BKN100
      TEMPO 2400/2402 1SM +TSRA BKN025CB OVC040
     FM240500 29005KT P6SM SCT040 BKN100
     FM240800 32005KT 4SM BR SCT020 BKN100
     FM241200 34010KT P6SM SCT045 SCT120=



000
FTUS41 KGYX 231700
TAFAUG
TAF
KAUG 231739Z 2318/2418 21009KT P6SM SCT045 SCT100
     FM232100 21010KT 5SM -TSRA BKN050CB
      TEMPO 2321/2324 1SM +TSRA BKN025CB OVC040
     FM240100 29005KT P6SM SCT040 BKN100
     FM240700 35004KT 3SM BR SCT010 SCT040 BKN100
     FM241200 35008KT P6SM SCT045 SCT120=



000
FTUS41 KGYX 231700
TAFPWM
TAF
KPWM 231739Z 2318/2418 19009G16KT P6SM FEW045 SCT100
     FM232300 23010KT 5SM -TSRA BKN050CB
      TEMPO 2323/2401 1SM +TSRA BKN025CB OVC040
     FM240400 30005KT P6SM SCT040 BKN100
     FM240800 34005KT 3SM BR SCT012 SCT040 BKN100
     FM241200 35009KT P6SM SCT120=



000
FTUS41 KGYX 231700
TAFCON
TAF
KCON 231739Z 2318/2418 22010G20KT P6SM SCT045 SCT100
     FM232200 25011KT 5SM -TSRA SCT025 OVC040CB
      TEMPO 2322/2324 1SM +TSRA BKN025CB OVC040
     FM240100 28005KT P6SM SCT045 BKN100
     FM240400 VRB03KT 3SM BR SCT020 SCT040 BKN100
     FM241200 33008KT P6SM SCT045 SCT120=



000
FTUS41 KGYX 231600 AAA
TAFLEB
TAF AMD
KLEB 231659Z 2317/2412 25010G18KT P6SM BKN050 BKN100
     FM232100 24010G18KT 4SM -TSRA OVC040CB
     FM240100 30005KT P6SM BKN100=



000
FTUS41 KGYX 231600 AAA
TAFCON
TAF AMD
KCON 231657Z 2317/2412 22010G20KT P6SM SCT050
     FM232200 25011KT 5SM -TSRA OVC040CB
     FM240300 28005KT P6SM BKN100=



000
FTUS41 KGYX 231600 AAA
TAFPWM
TAF AMD
KPWM 231603Z 2316/2412 19009G16KT P6SM FEW060 SCT250
     FM240000 23010KT 5SM -TSRA BKN050CB
     FM240600 30005KT P6SM BKN100=



000
FTUS41 KGYX 231100
TAFAUG
TAF
KAUG 231120Z 2312/2412 VRB03KT P6SM SKC
     FM231500 21009KT P6SM SCT050 SCT250
     FM232100 21010KT 5SM -TSRA BKN050CB
     FM240300 28005KT P6SM BKN100=



000
FTUS41 KGYX 231100
TAFPSM
TAF
KPSM 231120Z 2312/2412 22005KT P6SM SKC
     FM231500 22010KT P6SM SCT050
     FM240000 22009KT 5SM -TSRA BKN050CB
     FM240600 30005KT P6SM BKN100=



000
FTUS41 KGYX 231100
TAFCON
TAF
KCON 231120Z 2312/2412 VRB03KT P6SM SKC
     FM231300 22008KT P6SM SCT050
     FM232100 25011KT 5SM -TSRA OVC040CB
     FM240300 28005KT P6SM BKN100=



000
FTUS41 KGYX 231100
TAFLEB
TAF
KLEB 231120Z 2312/2412 18005KT P6SM SCT040
     FM231900 24010KT 4SM -TSRA OVC040CB
     FM240100 30005KT P6SM BKN100=



000
FTUS41 KGYX 231100
TAFPWM
TAF
KPWM 231120Z 2312/2412 24008KT P6SM SKC
     FM231600 21009G16KT P6SM FEW060 SCT250
     FM240000 23010KT 5SM -TSRA BKN050CB
     FM240600 30005KT P6SM BKN100=



000
FTUS41 KGYX 230900 RRA
TAFAUG
TAF
KAUG 230901Z 2309/2406 VRB03KT 5SM BR SCT002
     FM231300 21009KT P6SM SCT050 SCT250
     FM232100 21010KT 5SM -TSRA BKN050CB
     FM240300 28005KT P6SM BKN100=



000
FTUS41 KGYX 230900 RRA
TAFPSM
TAF
KPSM 230901Z 2309/2406 22005KT P6SM SKC
     FM231500 22010KT P6SM SCT050
     FM240000 22009KT 5SM -TSRA BKN050CB=



000
FTUS41 KGYX 230900 RRA
TAFPWM
TAF
KPWM 230901Z 2309/2406 20004KT P6SM SKC
     FM231600 21009G16KT P6SM FEW060 SCT250
     FM240000 23010KT 5SM -TSRA BKN050CB=



000
FTUS41 KGYX 230900 RRA
TAFLEB
TAF
KLEB 230901Z 2309/2406 00000KT 6SM BR SKC
     FM231000 00000KT 4SM BR SCT002
     FM231300 21008KT P6SM BKN050
     FM231900 25010KT 4SM -TSRA OVC040CB
     FM240100 30005KT P6SM BKN100=



000
FTUS41 KGYX 230900 RRA
TAFCON
TAF
KCON 230901Z 2309/2406 VRB03KT P6SM SKC
     FM231000 VRB03KT 5SM BR SCT002
     FM231200 22008KT P6SM SCT050
     FM232100 25011KT 5SM -TSRA OVC040CB
     FM240300 28005KT P6SM BKN100=



000
FTUS41 KGYX 230500
TAFPSM
TAF
KPSM 230520Z 2306/2406 22005KT P6SM SKC
     FM231500 22010KT P6SM SCT050
     FM240000 22009KT 5SM -TSRA BKN050CB=



000
FTUS41 KGYX 230500
TAFLEB
TAF
KLEB 230520Z 2306/2406 00000KT 6SM BR SKC
     FM230700 00000KT 4SM BR SCT002
     FM231300 21008KT P6SM BKN050
     FM231900 25010KT 4SM -TSRA OVC040CB
     FM240100 30005KT P6SM BKN100=



000
FTUS41 KGYX 230500
TAFCON
TAF
KCON 230520Z 2306/2406 22005KT P6SM SKC
     FM230800 VRB03KT 5SM BR SCT002
     FM231200 22008KT P6SM SCT050
     FM232100 25011KT 5SM -TSRA OVC040CB
     FM240300 28005KT P6SM BKN100=



000
FTUS41 KGYX 230500
TAFPWM
TAF
KPWM 230520Z 2306/2406 20004KT P6SM SKC
     FM231600 21009G16KT P6SM FEW060 SCT250
     FM240000 23010KT 5SM -TSRA BKN050CB=



000
FTUS41 KGYX 230500
TAFAUG
TAF
KAUG 230520Z 2306/2406 VRB03KT P6SM SCT250
     FM230700 VRB03KT 5SM BR SCT002
     FM231300 21009KT P6SM SCT050 SCT250
     FM232100 21010KT 5SM -TSRA BKN050CB
     FM240300 28005KT P6SM BKN100=



000
FTUS41 KGYX 222300
TAFCON
TAF
KCON 222322Z 2300/2324 VRB04KT P6SM SCT045
     FM230800 VRB03KT 4SM BR SCT002
     FM231200 22008KT P6SM SCT050
     FM232100 25011KT 4SM -TSRA OVC040CB=



000
FTUS41 KGYX 222300
TAFLEB
TAF
KLEB 222322Z 2300/2324 22005KT P6SM SCT050
     FM230700 VRB03KT 4SM BR SCT002
     FM231300 21010KT P6SM BKN050
     FM231900 25011KT 4SM -TSRA OVC040CB=



000
FTUS41 KGYX 222300
TAFPWM
TAF
KPWM 222322Z 2300/2324 20008KT P6SM FEW200
     FM230600 22004KT 5SM BR SKC
     FM231100 21009G16KT P6SM FEW060 SCT250=



000
FTUS41 KGYX 222300
TAFAUG
TAF
KAUG 222322Z 2300/2324 20004KT P6SM SKC
     FM230700 VRB03KT 2SM BR SCT002
     FM231300 21006KT P6SM SCT050 SCT250=



000
FTUS41 KGYX 222300
TAFPSM
TAF
KPSM 222322Z 2300/2324 18005KT P6SM FEW250
     FM231300 22010KT P6SM SCT050=



000
FTUS41 KGYX 221700
TAFPSM
TAF
KPSM 221723Z 2218/2318 17007KT P6SM SCT030
     FM231300 22010KT P6SM SCT050=



000
FTUS41 KGYX 221700
TAFAUG
TAF
KAUG 221723Z 2218/2318 20005KT P6SM FEW040
     FM230700 VRB03KT 2SM BR BKN002
     FM231300 22010KT P6SM SCT050=



000
FTUS41 KGYX 221700
TAFPWM
TAF
KPWM 221723Z 2218/2318 18012KT P6SM SCT040
     FM230100 21004KT P6SM SKC
     FM231500 20012KT P6SM SCT250=



000
FTUS41 KGYX 221700
TAFLEB
TAF
KLEB 221723Z 2218/2318 22005KT P6SM SCT050
     FM230700 VRB03KT 2SM BR BKN002
     FM231300 21010KT P6SM BKN050=



000
FTUS41 KGYX 221700
TAFCON
TAF
KCON 221723Z 2218/2318 VRB04KT P6SM SCT045
     FM230800 VRB03KT 2SM BR BKN002
     FM231200 22010KT P6SM SCT050=



    US Dept of Commerce
    National Oceanic and Atmospheric Administration
    National Weather Service
    1325 East West Highway
    Silver Spring, MD 20910
    Page Author: NWS Internet Services Team
Disclaimer
Information Quality
Credits
Glossary
Privacy Policy
Freedom of Information Act (FOIA)
About Us
Career Opportunities